sensor_id;sensor_type;location;lat;lon;timestamp;P1;durP1;ratioP1;P2;durP2;ratioP2
3613;SDS011;1821;50.936;6.854;2022-08-18T00:00:24;18.83;;;17.05;;
3613;SDS011;1821;50.936;6.854;2022-08-18T00:01:07;18.13;;;16.40;;
3613;SDS011;1821;50.936;6.854;2022-08-18T00:01:54;18.17;;;16.38;;
3613;SDS011;1821;50.936;6.854;2022-08-18T00:02:45;18.60;;;16.60;;
3613;SDS011;1821;50.936;6.854;2022-08-18T00:03:43;18.55;;;16.20;;
3613;SDS011;1821;50.936;6.854;2022-08-18T00:04:40;16.73;;;15.10;;
3613;SDS011;1821;50.936;6.854;2022-08-18T00:05:28;18.27;;;16.48;;
3613;SDS011;1821;50.936;6.854;2022-08-18T00:06:10;18.92;;;16.92;;
3613;SDS011;1821;50.936;6.854;2022-08-18T00:06:53;19.00;;;16.95;;
3613;SDS011;1821;50.936;6.854;2022-08-18T00:07:35;18.23;;;16.42;;
3613;SDS011;1821;50.936;6.854;2022-08-18T00:08:17;18.05;;;16.17;;
3613;SDS011;1821;50.936;6.854;2022-08-18T00:08:59;19.08;;;16.98;;
3613;SDS011;1821;50.936;6.854;2022-08-18T00:09:43;20.02;;;18.02;;
3613;SDS011;1821;50.936;6.854;2022-08-18T00:10:25;18.67;;;16.88;;
3613;SDS011;1821;50.936;6.854;2022-08-18T00:11:07;18.30;;;16.40;;
3613;SDS011;1821;50.936;6.854;2022-08-18T00:11:49;19.00;;;16.52;;
3613;SDS011;1821;50.936;6.854;2022-08-18T00:12:35;19.15;;;16.27;;
3613;SDS011;1821;50.936;6.854;2022-08-18T00:13:20;18.00;;;14.70;;
3613;SDS011;1821;50.936;6.854;2022-08-18T00:14:02;17.80;;;15.90;;
3613;SDS011;1821;50.936;6.854;2022-08-18T00:14:44;18.40;;;16.50;;
3613;SDS011;1821;50.936;6.854;2022-08-18T00:15:27;17.45;;;15.18;;
3613;SDS011;1821;50.936;6.854;2022-08-18T00:16:08;17.90;;;15.63;;
3613;SDS011;1821;50.936;6.854;2022-08-18T00:16:51;17.95;;;16.05;;
3613;SDS011;1821;50.936;6.854;2022-08-18T00:17:34;17.33;;;15.55;;
3613;SDS011;1821;50.936;6.854;2022-08-18T00:18:16;17.33;;;15.40;;
3613;SDS011;1821;50.936;6.854;2022-08-18T00:18:58;18.67;;;16.70;;
3613;SDS011;1821;50.936;6.854;2022-08-18T00:19:40;18.13;;;16.25;;
3613;SDS011;1821;50.936;6.854;2022-08-18T00:20:28;18.75;;;16.85;;
3613;SDS011;1821;50.936;6.854;2022-08-18T00:21:09;19.00;;;17.00;;
3613;SDS011;1821;50.936;6.854;2022-08-18T00:21:51;17.75;;;15.93;;
3613;SDS011;1821;50.936;6.854;2022-08-18T00:22:33;19.90;;;17.13;;
3613;SDS011;1821;50.936;6.854;2022-08-18T00:23:15;18.65;;;16.48;;
3613;SDS011;1821;50.936;6.854;2022-08-18T00:23:57;18.17;;;16.38;;
3613;SDS011;1821;50.936;6.854;2022-08-18T00:24:39;18.25;;;16.27;;
3613;SDS011;1821;50.936;6.854;2022-08-18T00:25:29;18.45;;;16.45;;
3613;SDS011;1821;50.936;6.854;2022-08-18T00:26:10;19.23;;;16.98;;
3613;SDS011;1821;50.936;6.854;2022-08-18T00:26:52;22.00;;;16.67;;
3613;SDS011;1821;50.936;6.854;2022-08-18T00:27:35;19.85;;;17.58;;
3613;SDS011;1821;50.936;6.854;2022-08-18T00:28:18;19.20;;;16.30;;
3613;SDS011;1821;50.936;6.854;2022-08-18T00:29:04;19.00;;;16.13;;
3613;SDS011;1821;50.936;6.854;2022-08-18T00:29:46;18.52;;;16.58;;
3613;SDS011;1821;50.936;6.854;2022-08-18T00:30:28;18.88;;;16.88;;
3613;SDS011;1821;50.936;6.854;2022-08-18T00:31:09;18.75;;;16.83;;
3613;SDS011;1821;50.936;6.854;2022-08-18T00:31:51;18.45;;;16.42;;
3613;SDS011;1821;50.936;6.854;2022-08-18T00:32:34;18.20;;;16.30;;
3613;SDS011;1821;50.936;6.854;2022-08-18T00:33:21;18.67;;;16.98;;
3613;SDS011;1821;50.936;6.854;2022-08-18T00:34:03;18.33;;;16.52;;
3613;SDS011;1821;50.936;6.854;2022-08-18T00:34:46;19.02;;;17.02;;
3613;SDS011;1821;50.936;6.854;2022-08-18T00:35:29;19.60;;;17.60;;
3613;SDS011;1821;50.936;6.854;2022-08-18T00:36:13;19.98;;;17.88;;
3613;SDS011;1821;50.936;6.854;2022-08-18T00:36:55;21.02;;;18.13;;
3613;SDS011;1821;50.936;6.854;2022-08-18T00:37:38;22.77;;;18.80;;
3613;SDS011;1821;50.936;6.854;2022-08-18T00:38:21;19.92;;;17.88;;
3613;SDS011;1821;50.936;6.854;2022-08-18T00:39:05;20.10;;;18.00;;
3613;SDS011;1821;50.936;6.854;2022-08-18T00:39:49;20.80;;;18.60;;
3613;SDS011;1821;50.936;6.854;2022-08-18T00:40:36;21.67;;;19.45;;
3613;SDS011;1821;50.936;6.854;2022-08-18T00:41:21;22.35;;;17.85;;
3613;SDS011;1821;50.936;6.854;2022-08-18T00:42:13;19.85;;;17.80;;
3613;SDS011;1821;50.936;6.854;2022-08-18T00:43:11;22.50;;;18.88;;
3613;SDS011;1821;50.936;6.854;2022-08-18T00:44:01;21.98;;;19.65;;
3613;SDS011;1821;50.936;6.854;2022-08-18T00:44:44;22.58;;;18.58;;
3613;SDS011;1821;50.936;6.854;2022-08-18T00:45:30;20.35;;;18.27;;
3613;SDS011;1821;50.936;6.854;2022-08-18T00:46:17;21.10;;;18.80;;
3613;SDS011;1821;50.936;6.854;2022-08-18T00:47:05;21.50;;;18.83;;
3613;SDS011;1821;50.936;6.854;2022-08-18T00:47:46;22.88;;;19.42;;
3613;SDS011;1821;50.936;6.854;2022-08-18T00:48:28;20.27;;;18.13;;
3613;SDS011;1821;50.936;6.854;2022-08-18T00:49:10;21.10;;;19.10;;
3613;SDS011;1821;50.936;6.854;2022-08-18T00:49:52;21.98;;;19.77;;
3613;SDS011;1821;50.936;6.854;2022-08-18T00:50:36;22.35;;;20.10;;
3613;SDS011;1821;50.936;6.854;2022-08-18T00:52:21;22.05;;;19.80;;
3613;SDS011;1821;50.936;6.854;2022-08-18T00:53:28;21.35;;;19.25;;
3613;SDS011;1821;50.936;6.854;2022-08-18T00:54:17;22.25;;;20.05;;
3613;SDS011;1821;50.936;6.854;2022-08-18T00:55:03;22.65;;;20.42;;
3613;SDS011;1821;50.936;6.854;2022-08-18T00:55:45;21.70;;;19.40;;
3613;SDS011;1821;50.936;6.854;2022-08-18T00:56:36;24.15;;;21.15;;
3613;SDS011;1821;50.936;6.854;2022-08-18T00:57:22;21.85;;;19.08;;
3613;SDS011;1821;50.936;6.854;2022-08-18T00:58:07;20.48;;;18.45;;
3613;SDS011;1821;50.936;6.854;2022-08-18T00:58:57;22.58;;;20.25;;
3613;SDS011;1821;50.936;6.854;2022-08-18T01:00:37;22.42;;;20.13;;
3613;SDS011;1821;50.936;6.854;2022-08-18T01:01:20;22.38;;;20.02;;
3613;SDS011;1821;50.936;6.854;2022-08-18T01:02:05;22.13;;;19.83;;
3613;SDS011;1821;50.936;6.854;2022-08-18T01:02:51;21.63;;;19.42;;
3613;SDS011;1821;50.936;6.854;2022-08-18T01:03:36;23.35;;;20.65;;
3613;SDS011;1821;50.936;6.854;2022-08-18T01:04:24;24.17;;;21.52;;
3613;SDS011;1821;50.936;6.854;2022-08-18T01:05:15;25.80;;;22.38;;
3613;SDS011;1821;50.936;6.854;2022-08-18T01:06:03;25.67;;;22.90;;
3613;SDS011;1821;50.936;6.854;2022-08-18T01:06:59;24.38;;;21.88;;
3613;SDS011;1821;50.936;6.854;2022-08-18T01:07:46;22.98;;;20.70;;
3613;SDS011;1821;50.936;6.854;2022-08-18T01:08:30;24.88;;;21.88;;
3613;SDS011;1821;50.936;6.854;2022-08-18T01:09:12;28.45;;;22.95;;
3613;SDS011;1821;50.936;6.854;2022-08-18T01:09:54;25.65;;;22.13;;
3613;SDS011;1821;50.936;6.854;2022-08-18T01:10:40;26.83;;;24.08;;
3613;SDS011;1821;50.936;6.854;2022-08-18T01:11:23;26.25;;;23.45;;
3613;SDS011;1821;50.936;6.854;2022-08-18T01:12:05;25.23;;;22.73;;
3613;SDS011;1821;50.936;6.854;2022-08-18T01:13:08;27.10;;;22.40;;
3613;SDS011;1821;50.936;6.854;2022-08-18T01:13:50;25.95;;;22.48;;
3613;SDS011;1821;50.936;6.854;2022-08-18T01:14:34;25.05;;;22.35;;
3613;SDS011;1821;50.936;6.854;2022-08-18T01:15:17;25.20;;;21.92;;
3613;SDS011;1821;50.936;6.854;2022-08-18T01:16:09;23.25;;;20.85;;
3613;SDS011;1821;50.936;6.854;2022-08-18T01:17:10;25.00;;;22.40;;
3613;SDS011;1821;50.936;6.854;2022-08-18T01:18:12;27.40;;;24.50;;
3613;SDS011;1821;50.936;6.854;2022-08-18T01:19:13;25.43;;;22.63;;
3613;SDS011;1821;50.936;6.854;2022-08-18T01:20:17;24.70;;;22.30;;
3613;SDS011;1821;50.936;6.854;2022-08-18T01:21:38;26.77;;;23.98;;
3613;SDS011;1821;50.936;6.854;2022-08-18T01:22:37;25.70;;;22.83;;
3613;SDS011;1821;50.936;6.854;2022-08-18T01:23:27;25.50;;;22.20;;
3613;SDS011;1821;50.936;6.854;2022-08-18T01:24:10;25.73;;;23.02;;
3613;SDS011;1821;50.936;6.854;2022-08-18T01:24:56;26.17;;;22.80;;
3613;SDS011;1821;50.936;6.854;2022-08-18T01:25:58;24.42;;;21.83;;
3613;SDS011;1821;50.936;6.854;2022-08-18T01:26:40;24.23;;;21.10;;
3613;SDS011;1821;50.936;6.854;2022-08-18T01:27:30;24.88;;;22.30;;
3613;SDS011;1821;50.936;6.854;2022-08-18T01:28:12;24.52;;;21.80;;
3613;SDS011;1821;50.936;6.854;2022-08-18T01:29:07;24.98;;;22.25;;
3613;SDS011;1821;50.936;6.854;2022-08-18T01:30:02;26.55;;;22.58;;
3613;SDS011;1821;50.936;6.854;2022-08-18T01:30:53;25.50;;;22.25;;
3613;SDS011;1821;50.936;6.854;2022-08-18T01:31:39;25.80;;;23.10;;
3613;SDS011;1821;50.936;6.854;2022-08-18T01:32:35;27.48;;;23.92;;
3613;SDS011;1821;50.936;6.854;2022-08-18T01:33:18;26.30;;;23.50;;
3613;SDS011;1821;50.936;6.854;2022-08-18T01:34:08;27.52;;;23.95;;
3613;SDS011;1821;50.936;6.854;2022-08-18T01:34:51;25.52;;;22.92;;
3613;SDS011;1821;50.936;6.854;2022-08-18T01:35:32;26.60;;;23.80;;
3613;SDS011;1821;50.936;6.854;2022-08-18T01:36:22;28.80;;;25.80;;
3613;SDS011;1821;50.936;6.854;2022-08-18T01:37:03;26.65;;;23.80;;
3613;SDS011;1821;50.936;6.854;2022-08-18T01:37:50;26.83;;;23.92;;
3613;SDS011;1821;50.936;6.854;2022-08-18T01:38:33;28.48;;;25.35;;
3613;SDS011;1821;50.936;6.854;2022-08-18T01:39:14;29.58;;;25.83;;
3613;SDS011;1821;50.936;6.854;2022-08-18T01:40:18;28.58;;;25.52;;
3613;SDS011;1821;50.936;6.854;2022-08-18T01:41:22;26.98;;;24.08;;
3613;SDS011;1821;50.936;6.854;2022-08-18T01:42:12;26.52;;;23.83;;
3613;SDS011;1821;50.936;6.854;2022-08-18T01:42:57;27.55;;;24.65;;
3613;SDS011;1821;50.936;6.854;2022-08-18T01:43:39;27.60;;;24.60;;
3613;SDS011;1821;50.936;6.854;2022-08-18T01:44:21;28.08;;;25.00;;
3613;SDS011;1821;50.936;6.854;2022-08-18T01:45:03;27.67;;;24.80;;
3613;SDS011;1821;50.936;6.854;2022-08-18T01:45:47;29.17;;;24.65;;
3613;SDS011;1821;50.936;6.854;2022-08-18T01:46:31;26.80;;;23.90;;
3613;SDS011;1821;50.936;6.854;2022-08-18T01:47:14;28.33;;;25.38;;
3613;SDS011;1821;50.936;6.854;2022-08-18T01:47:58;27.67;;;24.77;;
3613;SDS011;1821;50.936;6.854;2022-08-18T01:48:40;27.85;;;24.77;;
3613;SDS011;1821;50.936;6.854;2022-08-18T01:49:23;28.23;;;25.20;;
3613;SDS011;1821;50.936;6.854;2022-08-18T01:50:05;28.08;;;25.08;;
3613;SDS011;1821;50.936;6.854;2022-08-18T01:50:50;28.50;;;25.60;;
3613;SDS011;1821;50.936;6.854;2022-08-18T01:51:35;28.05;;;25.05;;
3613;SDS011;1821;50.936;6.854;2022-08-18T01:52:21;29.15;;;26.05;;
3613;SDS011;1821;50.936;6.854;2022-08-18T01:53:03;30.65;;;26.00;;
3613;SDS011;1821;50.936;6.854;2022-08-18T01:53:46;29.40;;;24.48;;
3613;SDS011;1821;50.936;6.854;2022-08-18T01:54:28;28.40;;;24.40;;
3613;SDS011;1821;50.936;6.854;2022-08-18T01:55:10;30.40;;;25.55;;
3613;SDS011;1821;50.936;6.854;2022-08-18T01:55:55;27.05;;;24.33;;
3613;SDS011;1821;50.936;6.854;2022-08-18T01:56:36;27.80;;;25.00;;
3613;SDS011;1821;50.936;6.854;2022-08-18T01:57:19;29.90;;;26.70;;
3613;SDS011;1821;50.936;6.854;2022-08-18T01:58:01;28.83;;;25.58;;
3613;SDS011;1821;50.936;6.854;2022-08-18T01:58:44;32.03;;;26.65;;
3613;SDS011;1821;50.936;6.854;2022-08-18T01:59:27;29.55;;;26.35;;
3613;SDS011;1821;50.936;6.854;2022-08-18T02:00:10;29.90;;;26.70;;
3613;SDS011;1821;50.936;6.854;2022-08-18T02:00:54;31.48;;;27.88;;
3613;SDS011;1821;50.936;6.854;2022-08-18T02:01:38;30.17;;;26.98;;
3613;SDS011;1821;50.936;6.854;2022-08-18T02:02:30;34.00;;;28.50;;
3613;SDS011;1821;50.936;6.854;2022-08-18T02:03:13;31.98;;;27.60;;
3613;SDS011;1821;50.936;6.854;2022-08-18T02:03:56;32.47;;;28.98;;
3613;SDS011;1821;50.936;6.854;2022-08-18T02:05:03;34.78;;;29.13;;
3613;SDS011;1821;50.936;6.854;2022-08-18T02:05:50;34.47;;;28.77;;
3613;SDS011;1821;50.936;6.854;2022-08-18T02:06:33;33.13;;;28.83;;
3613;SDS011;1821;50.936;6.854;2022-08-18T02:07:15;33.38;;;29.52;;
3613;SDS011;1821;50.936;6.854;2022-08-18T02:07:58;31.40;;;28.03;;
3613;SDS011;1821;50.936;6.854;2022-08-18T02:08:40;37.25;;;27.58;;
3613;SDS011;1821;50.936;6.854;2022-08-18T02:09:26;32.00;;;27.67;;
3613;SDS011;1821;50.936;6.854;2022-08-18T02:10:09;32.08;;;28.60;;
3613;SDS011;1821;50.936;6.854;2022-08-18T02:10:56;32.08;;;28.48;;
3613;SDS011;1821;50.936;6.854;2022-08-18T02:11:38;35.40;;;29.05;;
3613;SDS011;1821;50.936;6.854;2022-08-18T02:12:20;33.20;;;28.40;;
3613;SDS011;1821;50.936;6.854;2022-08-18T02:13:02;31.98;;;28.58;;
3613;SDS011;1821;50.936;6.854;2022-08-18T02:13:44;32.80;;;29.33;;
3613;SDS011;1821;50.936;6.854;2022-08-18T02:14:26;32.05;;;28.02;;
3613;SDS011;1821;50.936;6.854;2022-08-18T02:15:11;34.30;;;28.00;;
3613;SDS011;1821;50.936;6.854;2022-08-18T02:15:53;35.05;;;28.88;;
3613;SDS011;1821;50.936;6.854;2022-08-18T02:16:35;34.72;;;29.75;;
3613;SDS011;1821;50.936;6.854;2022-08-18T02:17:16;33.10;;;28.95;;
3613;SDS011;1821;50.936;6.854;2022-08-18T02:17:58;32.17;;;28.55;;
3613;SDS011;1821;50.936;6.854;2022-08-18T02:18:41;33.03;;;28.38;;
3613;SDS011;1821;50.936;6.854;2022-08-18T02:19:35;31.45;;;28.15;;
3613;SDS011;1821;50.936;6.854;2022-08-18T02:20:19;31.23;;;27.15;;
3613;SDS011;1821;50.936;6.854;2022-08-18T02:21:11;32.25;;;28.05;;
3613;SDS011;1821;50.936;6.854;2022-08-18T02:21:59;31.85;;;28.40;;
3613;SDS011;1821;50.936;6.854;2022-08-18T02:22:41;32.53;;;28.77;;
3613;SDS011;1821;50.936;6.854;2022-08-18T02:23:24;31.85;;;28.45;;
3613;SDS011;1821;50.936;6.854;2022-08-18T02:24:06;31.80;;;28.40;;
3613;SDS011;1821;50.936;6.854;2022-08-18T02:24:48;32.33;;;28.92;;
3613;SDS011;1821;50.936;6.854;2022-08-18T02:25:30;36.03;;;30.48;;
3613;SDS011;1821;50.936;6.854;2022-08-18T02:26:13;33.80;;;29.75;;
3613;SDS011;1821;50.936;6.854;2022-08-18T02:26:57;33.08;;;28.30;;
3613;SDS011;1821;50.936;6.854;2022-08-18T02:27:39;35.40;;;28.40;;
3613;SDS011;1821;50.936;6.854;2022-08-18T02:28:21;33.88;;;28.90;;
3613;SDS011;1821;50.936;6.854;2022-08-18T02:29:08;33.40;;;29.60;;
3613;SDS011;1821;50.936;6.854;2022-08-18T02:29:50;32.25;;;28.85;;
3613;SDS011;1821;50.936;6.854;2022-08-18T02:30:32;33.10;;;29.60;;
3613;SDS011;1821;50.936;6.854;2022-08-18T02:31:18;32.58;;;29.00;;
3613;SDS011;1821;50.936;6.854;2022-08-18T02:32:03;33.40;;;28.38;;
3613;SDS011;1821;50.936;6.854;2022-08-18T02:32:45;30.10;;;26.80;;
3613;SDS011;1821;50.936;6.854;2022-08-18T02:33:28;30.80;;;27.60;;
3613;SDS011;1821;50.936;6.854;2022-08-18T02:34:10;32.28;;;28.88;;
3613;SDS011;1821;50.936;6.854;2022-08-18T02:34:51;33.47;;;29.98;;
3613;SDS011;1821;50.936;6.854;2022-08-18T02:35:33;32.53;;;29.02;;
3613;SDS011;1821;50.936;6.854;2022-08-18T02:36:16;32.10;;;28.70;;
3613;SDS011;1821;50.936;6.854;2022-08-18T02:36:59;34.33;;;29.35;;
3613;SDS011;1821;50.936;6.854;2022-08-18T02:37:41;34.22;;;29.23;;
3613;SDS011;1821;50.936;6.854;2022-08-18T02:38:28;34.20;;;29.77;;
3613;SDS011;1821;50.936;6.854;2022-08-18T02:39:13;34.10;;;30.40;;
3613;SDS011;1821;50.936;6.854;2022-08-18T02:39:55;33.05;;;29.35;;
3613;SDS011;1821;50.936;6.854;2022-08-18T02:40:37;32.78;;;29.27;;
3613;SDS011;1821;50.936;6.854;2022-08-18T02:41:19;32.22;;;28.60;;
3613;SDS011;1821;50.936;6.854;2022-08-18T02:42:03;31.30;;;27.90;;
3613;SDS011;1821;50.936;6.854;2022-08-18T02:42:46;32.55;;;28.70;;
3613;SDS011;1821;50.936;6.854;2022-08-18T02:43:28;32.95;;;28.30;;
3613;SDS011;1821;50.936;6.854;2022-08-18T02:44:16;33.07;;;29.37;;
3613;SDS011;1821;50.936;6.854;2022-08-18T02:44:58;33.60;;;28.33;;
3613;SDS011;1821;50.936;6.854;2022-08-18T02:45:40;31.00;;;27.70;;
3613;SDS011;1821;50.936;6.854;2022-08-18T02:46:21;32.05;;;28.60;;
3613;SDS011;1821;50.936;6.854;2022-08-18T02:47:09;34.95;;;30.73;;
3613;SDS011;1821;50.936;6.854;2022-08-18T02:47:52;32.33;;;28.77;;
3613;SDS011;1821;50.936;6.854;2022-08-18T02:48:35;33.88;;;30.17;;
3613;SDS011;1821;50.936;6.854;2022-08-18T02:49:16;33.97;;;30.38;;
3613;SDS011;1821;50.936;6.854;2022-08-18T02:49:59;32.78;;;29.17;;
3613;SDS011;1821;50.936;6.854;2022-08-18T02:50:41;32.00;;;28.50;;
3613;SDS011;1821;50.936;6.854;2022-08-18T02:51:28;32.85;;;29.23;;
3613;SDS011;1821;50.936;6.854;2022-08-18T02:52:10;34.80;;;30.05;;
3613;SDS011;1821;50.936;6.854;2022-08-18T02:52:52;33.05;;;29.45;;
3613;SDS011;1821;50.936;6.854;2022-08-18T02:53:35;34.20;;;30.60;;
3613;SDS011;1821;50.936;6.854;2022-08-18T02:54:18;34.72;;;30.80;;
3613;SDS011;1821;50.936;6.854;2022-08-18T02:55:03;33.42;;;29.55;;
3613;SDS011;1821;50.936;6.854;2022-08-18T02:55:46;32.58;;;29.10;;
3613;SDS011;1821;50.936;6.854;2022-08-18T02:56:29;35.40;;;31.50;;
3613;SDS011;1821;50.936;6.854;2022-08-18T02:57:21;34.20;;;30.52;;
3613;SDS011;1821;50.936;6.854;2022-08-18T02:58:03;34.03;;;30.33;;
3613;SDS011;1821;50.936;6.854;2022-08-18T02:58:45;35.10;;;30.23;;
3613;SDS011;1821;50.936;6.854;2022-08-18T02:59:27;35.70;;;31.45;;
3613;SDS011;1821;50.936;6.854;2022-08-18T03:00:14;35.22;;;31.35;;
3613;SDS011;1821;50.936;6.854;2022-08-18T03:00:59;36.58;;;32.60;;
3613;SDS011;1821;50.936;6.854;2022-08-18T03:01:43;36.22;;;32.15;;
3613;SDS011;1821;50.936;6.854;2022-08-18T03:02:27;37.95;;;32.35;;
3613;SDS011;1821;50.936;6.854;2022-08-18T03:03:08;36.22;;;31.38;;
3613;SDS011;1821;50.936;6.854;2022-08-18T03:03:50;35.33;;;31.63;;
3613;SDS011;1821;50.936;6.854;2022-08-18T03:04:33;35.33;;;31.63;;
3613;SDS011;1821;50.936;6.854;2022-08-18T03:05:16;35.28;;;31.48;;
3613;SDS011;1821;50.936;6.854;2022-08-18T03:05:58;35.38;;;31.48;;
3613;SDS011;1821;50.936;6.854;2022-08-18T03:06:41;34.78;;;31.15;;
3613;SDS011;1821;50.936;6.854;2022-08-18T03:07:24;36.35;;;30.45;;
3613;SDS011;1821;50.936;6.854;2022-08-18T03:08:06;36.50;;;32.00;;
3613;SDS011;1821;50.936;6.854;2022-08-18T03:08:51;36.63;;;32.72;;
3613;SDS011;1821;50.936;6.854;2022-08-18T03:09:34;36.28;;;32.38;;
3613;SDS011;1821;50.936;6.854;2022-08-18T03:10:16;34.60;;;30.83;;
3613;SDS011;1821;50.936;6.854;2022-08-18T03:11:15;39.25;;;32.13;;
3613;SDS011;1821;50.936;6.854;2022-08-18T03:11:57;35.50;;;31.75;;
3613;SDS011;1821;50.936;6.854;2022-08-18T03:12:42;35.17;;;31.38;;
3613;SDS011;1821;50.936;6.854;2022-08-18T03:13:24;35.38;;;31.48;;
3613;SDS011;1821;50.936;6.854;2022-08-18T03:14:06;34.63;;;30.80;;
3613;SDS011;1821;50.936;6.854;2022-08-18T03:14:51;34.95;;;30.45;;
3613;SDS011;1821;50.936;6.854;2022-08-18T03:15:33;34.67;;;30.88;;
3613;SDS011;1821;50.936;6.854;2022-08-18T03:16:15;36.47;;;32.55;;
3613;SDS011;1821;50.936;6.854;2022-08-18T03:16:58;37.20;;;32.97;;
3613;SDS011;1821;50.936;6.854;2022-08-18T03:17:40;38.25;;;32.35;;
3613;SDS011;1821;50.936;6.854;2022-08-18T03:18:22;36.90;;;32.38;;
3613;SDS011;1821;50.936;6.854;2022-08-18T03:19:04;38.00;;;32.80;;
3613;SDS011;1821;50.936;6.854;2022-08-18T03:19:46;37.10;;;32.30;;
3613;SDS011;1821;50.936;6.854;2022-08-18T03:20:28;37.97;;;33.75;;
3613;SDS011;1821;50.936;6.854;2022-08-18T03:21:12;38.85;;;33.40;;
3613;SDS011;1821;50.936;6.854;2022-08-18T03:21:57;39.03;;;33.75;;
3613;SDS011;1821;50.936;6.854;2022-08-18T03:22:43;39.17;;;33.83;;
3613;SDS011;1821;50.936;6.854;2022-08-18T03:23:24;38.10;;;34.17;;
3613;SDS011;1821;50.936;6.854;2022-08-18T03:24:10;40.40;;;36.10;;
3613;SDS011;1821;50.936;6.854;2022-08-18T03:24:58;41.75;;;37.38;;
3613;SDS011;1821;50.936;6.854;2022-08-18T03:25:43;41.80;;;37.08;;
3613;SDS011;1821;50.936;6.854;2022-08-18T03:26:28;41.63;;;36.80;;
3613;SDS011;1821;50.936;6.854;2022-08-18T03:27:10;40.10;;;35.70;;
3613;SDS011;1821;50.936;6.854;2022-08-18T03:27:53;42.65;;;37.00;;
3613;SDS011;1821;50.936;6.854;2022-08-18T03:28:34;43.58;;;37.75;;
3613;SDS011;1821;50.936;6.854;2022-08-18T03:29:16;41.00;;;35.85;;
3613;SDS011;1821;50.936;6.854;2022-08-18T03:29:58;39.67;;;34.95;;
3613;SDS011;1821;50.936;6.854;2022-08-18T03:30:41;37.92;;;33.45;;
3613;SDS011;1821;50.936;6.854;2022-08-18T03:31:24;38.72;;;32.83;;
3613;SDS011;1821;50.936;6.854;2022-08-18T03:32:08;40.58;;;34.67;;
3613;SDS011;1821;50.936;6.854;2022-08-18T03:32:50;38.67;;;34.33;;
3613;SDS011;1821;50.936;6.854;2022-08-18T03:33:32;38.10;;;33.95;;
3613;SDS011;1821;50.936;6.854;2022-08-18T03:34:15;39.15;;;34.83;;
3613;SDS011;1821;50.936;6.854;2022-08-18T03:35:01;40.28;;;35.08;;
3613;SDS011;1821;50.936;6.854;2022-08-18T03:35:43;39.45;;;33.95;;
3613;SDS011;1821;50.936;6.854;2022-08-18T03:36:27;41.50;;;35.67;;
3613;SDS011;1821;50.936;6.854;2022-08-18T03:37:11;41.70;;;36.10;;
3613;SDS011;1821;50.936;6.854;2022-08-18T03:37:59;40.67;;;36.42;;
3613;SDS011;1821;50.936;6.854;2022-08-18T03:38:41;39.78;;;35.42;;
3613;SDS011;1821;50.936;6.854;2022-08-18T03:39:28;42.45;;;35.90;;
3613;SDS011;1821;50.936;6.854;2022-08-18T03:40:10;41.75;;;36.10;;
3613;SDS011;1821;50.936;6.854;2022-08-18T03:40:52;42.05;;;36.20;;
3613;SDS011;1821;50.936;6.854;2022-08-18T03:41:35;41.20;;;36.45;;
3613;SDS011;1821;50.936;6.854;2022-08-18T03:42:39;42.13;;;34.70;;
3613;SDS011;1821;50.936;6.854;2022-08-18T03:43:21;41.13;;;35.63;;
3613;SDS011;1821;50.936;6.854;2022-08-18T03:44:22;42.20;;;36.42;;
3613;SDS011;1821;50.936;6.854;2022-08-18T03:45:05;39.80;;;35.47;;
3613;SDS011;1821;50.936;6.854;2022-08-18T03:46:01;45.38;;;36.28;;
3613;SDS011;1821;50.936;6.854;2022-08-18T03:46:45;44.97;;;37.00;;
3613;SDS011;1821;50.936;6.854;2022-08-18T03:47:27;43.95;;;36.55;;
3613;SDS011;1821;50.936;6.854;2022-08-18T03:48:08;42.03;;;35.72;;
3613;SDS011;1821;50.936;6.854;2022-08-18T03:48:51;42.60;;;35.38;;
3613;SDS011;1821;50.936;6.854;2022-08-18T03:49:33;44.05;;;37.88;;
3613;SDS011;1821;50.936;6.854;2022-08-18T03:50:15;43.38;;;37.72;;
3613;SDS011;1821;50.936;6.854;2022-08-18T03:51:06;42.53;;;36.33;;
3613;SDS011;1821;50.936;6.854;2022-08-18T03:51:53;40.55;;;35.45;;
3613;SDS011;1821;50.936;6.854;2022-08-18T03:52:35;39.97;;;35.20;;
3613;SDS011;1821;50.936;6.854;2022-08-18T03:53:21;38.97;;;34.67;;
3613;SDS011;1821;50.936;6.854;2022-08-18T03:54:04;39.55;;;35.25;;
3613;SDS011;1821;50.936;6.854;2022-08-18T03:54:46;42.45;;;36.33;;
3613;SDS011;1821;50.936;6.854;2022-08-18T03:55:28;39.90;;;35.55;;
3613;SDS011;1821;50.936;6.854;2022-08-18T03:56:12;40.97;;;34.35;;
3613;SDS011;1821;50.936;6.854;2022-08-18T03:56:58;38.88;;;33.80;;
3613;SDS011;1821;50.936;6.854;2022-08-18T03:57:41;43.47;;;37.22;;
3613;SDS011;1821;50.936;6.854;2022-08-18T03:58:24;45.40;;;37.13;;
3613;SDS011;1821;50.936;6.854;2022-08-18T03:59:07;42.80;;;37.20;;
3613;SDS011;1821;50.936;6.854;2022-08-18T03:59:54;41.70;;;37.17;;
3613;SDS011;1821;50.936;6.854;2022-08-18T04:00:37;43.38;;;38.22;;
3613;SDS011;1821;50.936;6.854;2022-08-18T04:01:20;45.88;;;37.50;;
3613;SDS011;1821;50.936;6.854;2022-08-18T04:02:07;45.53;;;37.80;;
3613;SDS011;1821;50.936;6.854;2022-08-18T04:02:51;48.05;;;39.85;;
3613;SDS011;1821;50.936;6.854;2022-08-18T04:03:32;48.38;;;38.92;;
3613;SDS011;1821;50.936;6.854;2022-08-18T04:04:16;44.15;;;37.35;;
3613;SDS011;1821;50.936;6.854;2022-08-18T04:05:00;46.53;;;37.30;;
3613;SDS011;1821;50.936;6.854;2022-08-18T04:05:45;51.60;;;40.08;;
3613;SDS011;1821;50.936;6.854;2022-08-18T04:06:29;51.78;;;41.30;;
3613;SDS011;1821;50.936;6.854;2022-08-18T04:07:12;48.65;;;40.15;;
3613;SDS011;1821;50.936;6.854;2022-08-18T04:07:57;49.30;;;40.28;;
3613;SDS011;1821;50.936;6.854;2022-08-18T04:08:39;53.63;;;41.03;;
3613;SDS011;1821;50.936;6.854;2022-08-18T04:09:21;55.23;;;42.13;;
3613;SDS011;1821;50.936;6.854;2022-08-18T04:10:05;51.97;;;40.60;;
3613;SDS011;1821;50.936;6.854;2022-08-18T04:10:59;52.72;;;42.97;;
3613;SDS011;1821;50.936;6.854;2022-08-18T04:11:41;49.67;;;40.78;;
3613;SDS011;1821;50.936;6.854;2022-08-18T04:12:24;50.42;;;41.20;;
3613;SDS011;1821;50.936;6.854;2022-08-18T04:13:06;52.75;;;42.83;;
3613;SDS011;1821;50.936;6.854;2022-08-18T04:13:48;51.13;;;42.20;;
3613;SDS011;1821;50.936;6.854;2022-08-18T04:14:29;52.30;;;41.30;;
3613;SDS011;1821;50.936;6.854;2022-08-18T04:15:12;55.30;;;43.55;;
3613;SDS011;1821;50.936;6.854;2022-08-18T04:15:57;57.15;;;42.90;;
3613;SDS011;1821;50.936;6.854;2022-08-18T04:16:39;53.25;;;42.05;;
3613;SDS011;1821;50.936;6.854;2022-08-18T04:17:22;59.33;;;44.47;;
3613;SDS011;1821;50.936;6.854;2022-08-18T04:18:05;61.50;;;45.58;;
3613;SDS011;1821;50.936;6.854;2022-08-18T04:18:49;60.28;;;45.95;;
3613;SDS011;1821;50.936;6.854;2022-08-18T04:19:31;62.03;;;45.00;;
3613;SDS011;1821;50.936;6.854;2022-08-18T04:20:14;61.78;;;44.85;;
3613;SDS011;1821;50.936;6.854;2022-08-18T04:20:59;62.72;;;44.90;;
3613;SDS011;1821;50.936;6.854;2022-08-18T04:21:49;64.05;;;47.28;;
3613;SDS011;1821;50.936;6.854;2022-08-18T04:22:32;65.75;;;48.47;;
3613;SDS011;1821;50.936;6.854;2022-08-18T04:23:14;64.28;;;49.08;;
3613;SDS011;1821;50.936;6.854;2022-08-18T04:23:57;61.97;;;47.22;;
3613;SDS011;1821;50.936;6.854;2022-08-18T04:24:45;64.25;;;48.10;;
3613;SDS011;1821;50.936;6.854;2022-08-18T04:25:27;69.25;;;48.78;;
3613;SDS011;1821;50.936;6.854;2022-08-18T04:26:13;65.55;;;49.00;;
3613;SDS011;1821;50.936;6.854;2022-08-18T04:27:01;69.05;;;48.88;;
3613;SDS011;1821;50.936;6.854;2022-08-18T04:27:44;64.20;;;48.83;;
3613;SDS011;1821;50.936;6.854;2022-08-18T04:28:26;66.38;;;47.63;;
3613;SDS011;1821;50.936;6.854;2022-08-18T04:29:09;64.93;;;46.53;;
3613;SDS011;1821;50.936;6.854;2022-08-18T04:29:52;69.95;;;49.15;;
3613;SDS011;1821;50.936;6.854;2022-08-18T04:30:37;64.95;;;47.50;;
3613;SDS011;1821;50.936;6.854;2022-08-18T04:31:19;63.90;;;48.17;;
3613;SDS011;1821;50.936;6.854;2022-08-18T04:32:04;66.10;;;47.08;;
3613;SDS011;1821;50.936;6.854;2022-08-18T04:32:46;63.80;;;47.80;;